createdAt,value
2023-04-01T00:01:00.250Z,12.10
2023-04-01T00:03:28.262Z,11.90
2023-04-01T00:05:56.732Z,11.50
2023-04-01T00:08:23.898Z,11.50
2023-04-01T00:10:50.704Z,11.60
2023-04-01T00:13:17.334Z,11.70
2023-04-01T00:15:44.145Z,11.90
2023-04-01T00:18:10.969Z,11.80
2023-04-01T00:20:37.861Z,11.90
2023-04-01T00:23:05.555Z,12.20
2023-04-01T00:25:32.590Z,12.20
2023-04-01T00:27:59.339Z,12.40
2023-04-01T00:30:25.853Z,12.60
2023-04-01T00:32:53.927Z,12.70
2023-04-01T00:35:20.662Z,12.60
2023-04-01T00:37:48.268Z,12.90
2023-04-01T00:40:36.087Z,12.90
2023-04-01T00:43:04.220Z,12.80
2023-04-01T00:45:42.396Z,12.50
2023-04-01T00:48:16.362Z,12.40
2023-04-01T00:50:46.790Z,12.20
2023-04-01T00:53:13.738Z,12.20
2023-04-01T00:55:43.766Z,12.30
2023-04-01T00:58:15.421Z,12.40
2023-04-01T01:00:42.785Z,11.80
2023-04-01T01:03:09.390Z,11.70
2023-04-01T01:05:53.974Z,11.60
2023-04-01T01:08:33.491Z,11.40
2023-04-01T01:11:00.487Z,11.00
2023-04-01T01:13:51.886Z,10.90
2023-04-01T01:16:28.383Z,10.70
2023-04-01T01:19:08.755Z,10.70
2023-04-01T01:22:00.000Z,10.40
2023-04-01T01:25:03.553Z,10.30
2023-04-01T01:27:30.423Z,10.40
2023-04-01T01:30:26.644Z,10.30
2023-04-01T01:33:08.460Z,10.50
2023-04-01T01:35:53.408Z,10.60
2023-04-01T01:38:24.341Z,10.70
2023-04-01T01:40:59.908Z,10.70
2023-04-01T01:43:31.423Z,10.80
2023-04-01T01:46:02.872Z,10.80
2023-04-01T01:48:30.582Z,10.90
2023-04-01T01:50:57.501Z,11.00
2023-04-01T01:53:24.065Z,11.20
2023-04-01T01:55:50.692Z,11.20
2023-04-01T01:58:22.610Z,11.40
2023-04-01T02:00:56.851Z,11.70
2023-04-01T02:03:25.854Z,11.60
2023-04-01T02:05:54.463Z,11.70
2023-04-01T02:08:29.067Z,11.80
2023-04-01T02:10:59.336Z,11.80
2023-04-01T02:13:36.929Z,12.10
2023-04-01T02:16:08.438Z,11.80
2023-04-01T02:18:36.427Z,11.40
2023-04-01T02:21:03.743Z,11.30
2023-04-01T02:23:30.676Z,11.60
2023-04-01T02:25:57.247Z,11.70
2023-04-01T02:28:24.387Z,11.80
2023-04-01T02:30:51.361Z,11.50
2023-04-01T02:33:18.183Z,11.70
2023-04-01T02:35:44.823Z,11.90
2023-04-01T02:38:11.470Z,11.90
2023-04-01T02:40:50.463Z,11.80
2023-04-01T02:43:17.338Z,11.90
2023-04-01T02:45:44.528Z,12.10
2023-04-01T02:48:11.271Z,12.40
2023-04-01T02:50:37.807Z,12.70
2023-04-01T02:53:04.856Z,12.70
2023-04-01T02:55:32.085Z,12.50
2023-04-01T02:57:59.697Z,12.70
2023-04-01T03:00:27.687Z,12.80
2023-04-01T03:02:54.488Z,12.80
2023-04-01T03:05:21.150Z,12.90
2023-04-01T03:07:48.002Z,12.80
2023-04-01T03:10:15.405Z,12.90
2023-04-01T03:12:42.098Z,12.70
2023-04-01T03:15:11.772Z,13.00
2023-04-01T03:17:40.367Z,12.90
2023-04-01T03:20:09.289Z,12.80
2023-04-01T03:22:36.329Z,12.90
2023-04-01T03:25:05.332Z,12.80
2023-04-01T03:27:32.405Z,13.00
2023-04-01T03:29:59.039Z,12.80
2023-04-01T03:32:28.223Z,12.70
2023-04-01T03:34:54.752Z,12.60
2023-04-01T03:37:21.436Z,12.40
2023-04-01T03:39:47.976Z,12.50
2023-04-01T03:42:14.611Z,12.60
2023-04-01T03:44:41.186Z,12.40
2023-04-01T03:47:10.615Z,12.00
2023-04-01T03:49:37.316Z,12.00
2023-04-01T03:52:04.176Z,12.00
2023-04-01T03:54:30.908Z,12.20
2023-04-01T03:56:58.929Z,12.00
2023-04-01T03:59:25.709Z,12.10
2023-04-01T04:01:52.333Z,12.00
2023-04-01T04:04:19.028Z,12.00
2023-04-01T04:06:45.924Z,12.20
2023-04-01T04:09:12.664Z,12.20
2023-04-01T04:11:39.172Z,12.10
2023-04-01T04:14:05.758Z,12.00
2023-04-01T04:16:32.598Z,11.90
2023-04-01T04:19:02.480Z,11.70
2023-04-01T04:21:29.096Z,11.70
2023-04-01T04:23:56.007Z,11.80
2023-04-01T04:26:22.754Z,11.70
2023-04-01T04:29:00.806Z,11.50
2023-04-01T04:31:28.023Z,11.80
2023-04-01T04:33:57.482Z,12.20
2023-04-01T04:36:24.202Z,12.20
2023-04-01T04:38:52.164Z,12.20
2023-04-01T04:41:20.488Z,12.20
2023-04-01T04:43:54.604Z,12.20
2023-04-01T04:46:22.958Z,12.10
2023-04-01T04:48:53.874Z,12.40
2023-04-01T04:51:23.549Z,12.30
2023-04-01T04:53:51.502Z,12.30
2023-04-01T04:56:22.422Z,12.40
2023-04-01T04:59:04.481Z,12.40
2023-04-01T05:01:41.381Z,12.00
2023-04-01T05:04:07.930Z,11.90
2023-04-01T05:06:34.594Z,12.00
2023-04-01T05:09:02.356Z,12.30
2023-04-01T05:11:28.888Z,12.40
2023-04-01T05:13:55.943Z,12.00
2023-04-01T05:16:22.784Z,11.70
2023-04-01T05:18:49.508Z,11.50
2023-04-01T05:21:16.418Z,11.20
2023-04-01T05:23:43.323Z,11.20
2023-04-01T05:26:12.733Z,10.90
2023-04-01T05:28:39.873Z,10.90
2023-04-01T05:31:07.190Z,11.00
2023-04-01T05:33:41.658Z,11.30
2023-04-01T05:36:13.788Z,11.50
2023-04-01T05:38:41.076Z,11.70
2023-04-01T05:41:10.697Z,11.70
2023-04-01T05:43:41.968Z,11.70
2023-04-01T05:46:27.403Z,11.50
2023-04-01T05:48:59.643Z,11.90
2023-04-01T05:51:26.982Z,11.90
2023-04-01T05:53:53.563Z,11.70
2023-04-01T05:56:20.300Z,11.50
2023-04-01T05:58:54.951Z,11.50
2023-04-01T06:01:23.848Z,11.90
2023-04-01T06:03:50.789Z,12.00
2023-04-01T06:06:25.296Z,11.80
2023-04-01T06:08:53.992Z,11.60
2023-04-01T06:12:00.985Z,11.50
2023-04-01T06:14:42.803Z,11.40
2023-04-01T06:17:32.633Z,11.60
2023-04-01T06:20:18.351Z,11.80
2023-04-01T06:22:48.027Z,12.10
2023-04-01T06:25:41.261Z,12.10
2023-04-01T06:28:29.907Z,11.60
2023-04-01T06:31:21.729Z,11.50
2023-04-01T06:34:07.527Z,11.40
2023-04-01T06:37:09.378Z,11.60
2023-04-01T06:39:57.438Z,11.50
2023-04-01T06:42:43.719Z,11.50
2023-04-01T06:46:00.737Z,11.80
2023-04-01T06:49:23.602Z,11.70
2023-04-01T06:52:24.147Z,12.00
2023-04-01T06:55:15.339Z,12.40
2023-04-01T06:58:26.437Z,12.20
2023-04-01T07:00:57.609Z,12.00
2023-04-01T07:03:33.868Z,11.70
2023-04-01T07:06:14.866Z,11.60
2023-04-01T07:08:50.779Z,11.80
2023-04-01T07:11:27.840Z,11.80
2023-04-01T07:14:18.460Z,11.70
2023-04-01T07:16:50.268Z,11.60
2023-04-01T07:19:25.851Z,11.80
2023-04-01T07:22:23.922Z,11.90
2023-04-01T07:25:28.962Z,11.80
2023-04-01T07:28:17.377Z,11.60
2023-04-01T07:31:09.389Z,11.90
2023-04-01T07:33:58.024Z,11.80
2023-04-01T07:36:35.227Z,11.80
2023-04-01T07:39:10.235Z,12.00
2023-04-01T07:42:00.632Z,11.90
2023-04-01T07:44:47.931Z,12.20
2023-04-01T07:47:29.591Z,12.50
2023-04-01T07:50:22.998Z,12.50
2023-04-01T07:53:18.714Z,12.70
2023-04-01T07:55:59.635Z,13.00
2023-04-01T07:58:47.970Z,12.60
2023-04-01T08:01:48.252Z,12.90
2023-04-01T08:04:22.717Z,12.40
2023-04-01T08:07:00.750Z,12.10
2023-04-01T08:09:36.667Z,12.00
2023-04-01T08:12:59.021Z,12.70
2023-04-01T08:16:04.605Z,13.10
2023-04-01T08:19:07.503Z,13.40
2023-04-01T08:21:48.547Z,13.50
2023-04-01T08:24:26.218Z,13.60
2023-04-01T08:26:57.668Z,14.00
2023-04-01T08:29:41.364Z,13.90
2023-04-01T08:32:12.320Z,13.60
2023-04-01T08:34:42.332Z,13.80
2023-04-01T08:37:23.107Z,13.20
2023-04-01T08:40:14.930Z,12.80
2023-04-01T08:42:50.734Z,12.30
2023-04-01T08:45:37.821Z,11.80
2023-04-01T08:48:32.521Z,11.70
2023-04-01T08:51:28.502Z,11.50
2023-04-01T08:54:17.189Z,11.30
2023-04-01T08:56:53.658Z,11.30
2023-04-01T08:59:41.442Z,11.20
2023-04-01T09:03:07.259Z,11.10
2023-04-01T09:06:12.178Z,11.20
2023-04-01T09:09:18.546Z,11.00
2023-04-01T09:11:54.403Z,11.10
2023-04-01T09:14:27.288Z,11.20
2023-04-01T09:17:39.362Z,11.00
2023-04-01T09:20:40.745Z,11.20
2023-04-01T09:23:25.399Z,11.20
2023-04-01T09:26:13.608Z,11.10
2023-04-01T09:29:33.572Z,11.20
2023-04-01T09:32:22.096Z,11.20
2023-04-01T09:35:37.442Z,11.30
2023-04-01T09:38:09.908Z,11.30
2023-04-01T09:41:11.034Z,11.60
2023-04-01T09:44:14.903Z,11.30
2023-04-01T09:47:32.717Z,11.30
2023-04-01T09:50:06.412Z,11.20
2023-04-01T09:52:44.212Z,11.30
2023-04-01T09:55:21.626Z,11.30
2023-04-01T09:58:13.478Z,11.40
2023-04-01T10:01:35.759Z,11.40
2023-04-01T10:04:52.215Z,11.50
2023-04-01T10:07:55.460Z,11.40
2023-04-01T10:11:00.522Z,11.30
2023-04-01T10:13:45.659Z,11.40
2023-04-01T10:16:39.017Z,11.20
2023-04-01T10:19:46.484Z,11.40
2023-04-01T10:22:49.256Z,11.20
2023-04-01T10:25:20.907Z,10.90
2023-04-01T10:28:07.877Z,11.00
2023-04-01T10:31:15.533Z,11.00
2023-04-01T10:34:16.149Z,11.00
2023-04-01T10:36:52.165Z,11.30
2023-04-01T10:39:36.458Z,11.30
2023-04-01T10:42:38.505Z,11.40
2023-04-01T10:45:46.556Z,11.40
2023-04-01T10:48:31.416Z,11.60
2023-04-01T10:50:57.904Z,11.50
2023-04-01T10:53:40.158Z,11.20
2023-04-01T10:56:49.263Z,10.80
2023-04-01T11:00:11.932Z,11.10
2023-04-01T11:02:58.452Z,10.90
2023-04-01T11:06:15.709Z,11.10
2023-04-01T11:08:49.735Z,11.00
2023-04-01T11:11:58.918Z,10.60
2023-04-01T11:14:50.215Z,10.40
2023-04-01T11:17:24.574Z,10.70
2023-04-01T11:20:03.646Z,10.60
2023-04-01T11:23:01.751Z,10.70
2023-04-01T11:25:50.165Z,10.60
2023-04-01T11:28:58.538Z,10.60
2023-04-01T11:31:46.865Z,10.70
2023-04-01T11:34:42.443Z,10.40
2023-04-01T11:37:21.726Z,10.20
2023-04-01T11:40:36.315Z,10.10
2023-04-01T11:44:07.296Z,10.40
2023-04-01T11:47:02.524Z,10.50
2023-04-01T11:49:53.922Z,10.80
2023-04-01T11:52:36.680Z,11.00
2023-04-01T11:55:22.587Z,11.20
2023-04-01T11:58:18.584Z,11.40
2023-04-01T12:01:07.343Z,11.20
2023-04-01T12:04:00.901Z,10.90
2023-04-01T12:06:44.797Z,11.10
2023-04-01T12:09:22.203Z,11.00
2023-04-01T12:12:07.564Z,11.30
2023-04-01T12:14:44.437Z,11.10
2023-04-01T12:17:29.027Z,10.70
2023-04-01T12:20:30.780Z,10.30
2023-04-01T12:23:08.311Z,10.10
2023-04-01T12:25:59.684Z,10.50
2023-04-01T12:28:53.790Z,10.80
2023-04-01T12:31:27.193Z,10.50
2023-04-01T12:34:00.130Z,10.40
2023-04-01T12:36:41.949Z,10.40
2023-04-01T12:39:50.725Z,10.40
2023-04-01T12:42:25.246Z,10.30
2023-04-01T12:44:51.875Z,10.10
2023-04-01T12:47:53.913Z,10.60
2023-04-01T12:50:35.764Z,10.30
2023-04-01T12:53:40.530Z,10.30
2023-04-01T12:56:37.160Z,10.30
2023-04-01T12:59:24.660Z,10.40
2023-04-01T13:02:20.433Z,10.30
2023-04-01T13:04:47.019Z,10.10
2023-04-01T13:07:19.243Z,10.00
2023-04-01T13:09:57.884Z,10.30
2023-04-01T13:12:52.096Z,10.10
2023-04-01T13:15:38.620Z,9.90
2023-04-01T13:18:29.433Z,10.20
2023-04-01T13:21:07.376Z,10.30
2023-04-01T13:23:49.955Z,10.20
2023-04-01T13:26:16.467Z,10.20
2023-04-01T13:29:00.493Z,10.20
2023-04-01T13:31:53.086Z,10.00
2023-04-01T13:34:31.528Z,10.10
2023-04-01T13:37:16.116Z,10.30
2023-04-01T13:39:45.855Z,10.10
2023-04-01T13:42:20.394Z,9.90
2023-04-01T13:44:58.484Z,10.00
2023-04-01T13:47:46.758Z,10.10
2023-04-01T13:50:19.432Z,10.10
2023-04-01T13:53:01.224Z,9.70
2023-04-01T13:55:46.622Z,9.90
2023-04-01T13:58:22.324Z,9.80
2023-04-01T14:00:55.143Z,10.00
2023-04-01T14:03:46.534Z,10.10
2023-04-01T14:06:16.078Z,10.20
2023-04-01T14:08:45.658Z,10.20
2023-04-01T14:11:53.367Z,9.80
2023-04-01T14:14:33.597Z,9.50
2023-04-01T14:17:22.475Z,9.40
2023-04-01T14:20:19.691Z,9.40
2023-04-01T14:23:15.013Z,9.40
2023-04-01T14:26:18.850Z,9.60
2023-04-01T14:29:10.643Z,9.70
2023-04-01T14:31:43.283Z,9.90
2023-04-01T14:34:12.571Z,9.80
2023-04-01T14:36:54.339Z,9.70
2023-04-01T14:39:51.548Z,9.60
2023-04-01T14:42:39.076Z,9.20
2023-04-01T14:45:41.804Z,9.20
2023-04-01T14:48:33.315Z,9.30
2023-04-01T14:51:38.245Z,9.40
2023-04-01T14:54:12.741Z,9.40
2023-04-01T14:56:44.555Z,9.50
2023-04-01T14:59:16.541Z,9.20
2023-04-01T15:02:00.911Z,9.10
2023-04-01T15:04:48.251Z,9.10
2023-04-01T15:07:42.824Z,9.20
2023-04-01T15:10:47.136Z,9.20
2023-04-01T15:13:16.081Z,9.40
2023-04-01T15:15:48.526Z,9.20
2023-04-01T15:18:26.401Z,9.30
2023-04-01T15:21:17.137Z,9.10
2023-04-01T15:24:08.956Z,9.10
2023-04-01T15:27:04.237Z,9.10
2023-04-01T15:30:02.407Z,9.40
2023-04-01T15:32:32.203Z,9.20
2023-04-01T15:35:14.292Z,9.40
2023-04-01T15:37:55.424Z,9.10
2023-04-01T15:40:31.732Z,8.80
2023-04-01T15:43:31.505Z,8.80
2023-04-01T15:46:21.459Z,9.00
2023-04-01T15:49:06.119Z,8.80
2023-04-01T15:51:56.232Z,8.90
2023-04-01T15:54:43.794Z,8.80
2023-04-01T15:57:30.341Z,8.90
2023-04-01T16:00:15.118Z,8.70
2023-04-01T16:02:49.660Z,8.90
2023-04-01T16:05:19.194Z,8.80
2023-04-01T16:07:48.709Z,8.80
2023-04-01T16:10:33.055Z,8.90
2023-04-01T16:13:21.255Z,8.60
2023-04-01T16:16:16.247Z,8.80
2023-04-01T16:19:27.587Z,8.70
2023-04-01T16:22:07.817Z,8.60
2023-04-01T16:24:35.989Z,8.70
2023-04-01T16:27:22.729Z,8.60
2023-04-01T16:29:58.244Z,8.30
2023-04-01T16:32:39.739Z,8.30
2023-04-01T16:35:24.640Z,8.40
2023-04-01T16:37:55.265Z,8.40
2023-04-01T16:40:43.576Z,8.30
2023-04-01T16:43:10.052Z,8.30
2023-04-01T16:45:40.544Z,8.00
2023-04-01T16:48:13.780Z,8.10
2023-04-01T16:50:52.315Z,7.80
2023-04-01T16:53:26.528Z,7.70
2023-04-01T16:56:02.494Z,7.90
2023-04-01T16:58:37.106Z,7.90
2023-04-01T17:01:23.992Z,7.80
2023-04-01T17:03:54.813Z,8.30
2023-04-01T17:06:46.686Z,8.30
2023-04-01T17:09:19.483Z,8.30
2023-04-01T17:12:21.805Z,8.20
2023-04-01T17:15:26.073Z,8.30
2023-04-01T17:18:23.198Z,8.40
2023-04-01T17:21:14.144Z,8.10
2023-04-01T17:23:52.173Z,8.10
2023-04-01T17:26:25.974Z,7.90
2023-04-01T17:28:59.698Z,7.60
2023-04-01T17:31:35.495Z,7.50
2023-04-01T17:34:17.399Z,7.60
2023-04-01T17:36:53.641Z,7.80
2023-04-01T17:39:23.034Z,7.80
2023-04-01T17:42:19.372Z,7.80
2023-04-01T17:45:06.342Z,7.60
2023-04-01T17:47:47.808Z,7.40
2023-04-01T17:50:23.290Z,7.40
2023-04-01T17:53:15.681Z,7.40
2023-04-01T17:56:04.138Z,7.50
2023-04-01T17:58:41.454Z,7.40
2023-04-01T18:01:25.881Z,7.40
2023-04-01T18:04:18.655Z,7.20
2023-04-01T18:07:00.624Z,7.40
2023-04-01T18:09:40.882Z,7.20
2023-04-01T18:12:16.913Z,7.20
2023-04-01T18:15:09.162Z,6.90
2023-04-01T18:17:46.166Z,6.90
2023-04-01T18:20:32.892Z,7.10
2023-04-01T18:23:03.622Z,6.90
2023-04-01T18:25:37.684Z,6.70
2023-04-01T18:28:32.076Z,7.10
2023-04-01T18:31:06.835Z,7.60
2023-04-01T18:33:57.532Z,7.70
2023-04-01T18:36:45.980Z,7.40
2023-04-01T18:39:29.493Z,7.20
2023-04-01T18:42:06.879Z,6.90
2023-04-01T18:44:57.164Z,6.70
2023-04-01T18:47:45.222Z,6.90
2023-04-01T18:50:59.462Z,7.00
2023-04-01T18:53:51.034Z,7.00
2023-04-01T18:56:35.803Z,7.10
2023-04-01T18:59:04.961Z,7.10
2023-04-01T19:01:42.918Z,7.20
2023-04-01T19:04:21.097Z,7.30
2023-04-01T19:06:57.745Z,7.40
2023-04-01T19:09:45.666Z,7.10
2023-04-01T19:12:35.907Z,7.10
2023-04-01T19:15:24.033Z,7.00
2023-04-01T19:17:59.609Z,6.70
2023-04-01T19:20:32.464Z,6.60
2023-04-01T19:23:21.171Z,6.60
2023-04-01T19:25:52.514Z,6.60
2023-04-01T19:28:27.434Z,6.80
2023-04-01T19:30:59.595Z,6.60
2023-04-01T19:33:44.691Z,6.30
2023-04-01T19:36:17.568Z,6.40
2023-04-01T19:38:51.518Z,6.40
2023-04-01T19:41:40.609Z,6.40
2023-04-01T19:44:31.617Z,6.70
2023-04-01T19:47:20.944Z,6.70
2023-04-01T19:49:47.676Z,6.60
2023-04-01T19:52:35.905Z,6.80
2023-04-01T19:55:35.425Z,6.70
2023-04-01T19:58:26.260Z,6.50
2023-04-01T20:01:01.455Z,6.40
2023-04-01T20:03:52.888Z,6.80
2023-04-01T20:06:53.411Z,6.90
2023-04-01T20:09:37.976Z,6.40
2023-04-01T20:12:30.522Z,6.40
2023-04-01T20:15:04.751Z,6.20
2023-04-01T20:17:43.227Z,6.00
2023-04-01T20:20:09.799Z,6.00
2023-04-01T20:22:48.325Z,5.80
2023-04-01T20:25:42.360Z,5.60
2023-04-01T20:28:20.927Z,5.60
2023-04-01T20:30:50.846Z,5.50
2023-04-01T20:33:32.250Z,5.80
2023-04-01T20:36:16.590Z,5.60
2023-04-01T20:39:04.566Z,5.80
2023-04-01T20:41:51.402Z,5.70
2023-04-01T20:44:21.051Z,5.80
2023-04-01T20:47:25.391Z,5.80
2023-04-01T20:50:27.440Z,5.70
2023-04-01T20:53:03.426Z,5.60
2023-04-01T20:55:51.056Z,5.70
2023-04-01T20:58:37.344Z,6.00
2023-04-01T21:01:22.467Z,5.80
2023-04-01T21:04:15.673Z,5.90
2023-04-01T21:07:10.409Z,5.80
2023-04-01T21:09:40.057Z,5.60
2023-04-01T21:12:20.928Z,5.50
2023-04-01T21:15:21.497Z,5.30
2023-04-01T21:18:15.963Z,5.30
2023-04-01T21:21:11.158Z,5.00
2023-04-01T21:23:50.584Z,5.20
2023-04-01T21:26:31.122Z,5.50
2023-04-01T21:29:07.908Z,5.50
2023-04-01T21:32:08.006Z,5.20
2023-04-01T21:34:53.607Z,5.10
2023-04-01T21:37:41.884Z,5.00
2023-04-01T21:40:25.838Z,5.40
2023-04-01T21:43:04.427Z,5.10
2023-04-01T21:45:43.291Z,4.70
2023-04-01T21:48:30.938Z,4.70
2023-04-01T21:51:26.826Z,5.00
2023-04-01T21:54:21.207Z,5.00
2023-04-01T21:57:06.121Z,5.00
2023-04-01T21:59:38.497Z,5.00
2023-04-01T22:02:55.167Z,5.00
2023-04-01T22:05:37.815Z,4.90
2023-04-01T22:08:33.586Z,5.00
2023-04-01T22:11:18.218Z,4.90
2023-04-01T22:13:51.048Z,5.00
2023-04-01T22:16:22.956Z,5.00
2023-04-01T22:19:01.593Z,5.00
2023-04-01T22:21:30.923Z,5.10
2023-04-01T22:24:15.693Z,4.80
2023-04-01T22:26:59.298Z,4.80
2023-04-01T22:29:32.976Z,4.90
2023-04-01T22:32:08.113Z,4.90
2023-04-01T22:34:51.134Z,4.90
2023-04-01T22:37:20.648Z,4.60
2023-04-01T22:40:01.901Z,4.80
2023-04-01T22:42:37.224Z,4.70
2023-04-01T22:45:11.819Z,4.90
2023-04-01T22:48:04.266Z,4.90
2023-04-01T22:50:37.832Z,5.00
2023-04-01T22:53:15.562Z,4.70
2023-04-01T22:55:52.691Z,4.80
2023-04-01T22:58:28.174Z,4.80
2023-04-01T23:01:05.696Z,4.70
2023-04-01T23:03:34.119Z,4.90
2023-04-01T23:06:03.151Z,5.00
2023-04-01T23:09:06.357Z,4.80
2023-04-01T23:11:44.769Z,4.80
2023-04-01T23:14:29.691Z,4.80
2023-04-01T23:17:21.290Z,4.30
2023-04-01T23:19:56.280Z,4.70
2023-04-01T23:22:33.045Z,4.80
2023-04-01T23:25:34.496Z,4.80
2023-04-01T23:28:25.835Z,4.70
2023-04-01T23:30:53.000Z,4.70
2023-04-01T23:33:19.608Z,4.90
2023-04-01T23:35:49.899Z,4.90
2023-04-01T23:38:17.389Z,4.70
2023-04-01T23:40:44.068Z,5.00
2023-04-01T23:43:27.316Z,4.80
2023-04-01T23:45:56.162Z,4.60
2023-04-01T23:48:31.746Z,4.60
2023-04-01T23:50:59.151Z,4.40
2023-04-01T23:53:29.830Z,4.50
2023-04-01T23:55:57.139Z,4.40
2023-04-01T23:58:28.454Z,4.60
